Bookmark and Share
Track history (hours):
 

Tb_john

Last reported at 2014-Apr-23 12:26 UTC. Time now 2014-Apr-23 13:15 UTC.
Position N 59°20' E 010°31'.

Length 33 m; draft 5 m.

Type: Tug. MMSI: 259599000.

NotesDate/timePositionNaut miles runAvg speedWind from/ knotsBaromVisibWave heightAir tempDewpointWater temp
2014-Apr-23 12:26N 59°20' E 010°31'0 0.0
2014-Apr-23 08:32N 59°20' E 010°31'0 0.0
2014-Apr-23 03:22N 59°20' E 010°31'0 0.0
2014-Apr-22 20:07N 59°20' E 010°31'0 0.0
2014-Apr-22 19:31N 59°20' E 010°31'0 0.0
2014-Apr-22 18:33N 59°20' E 010°31'0 0.0
2014-Apr-22 11:04N 59°20' E 010°31'0 0.0
2014-Apr-22 10:10N 59°20' E 010°31'0 0.0
2014-Apr-21 20:09N 59°20' E 010°31'0 0.0
2014-Apr-21 13:17N 59°20' E 010°31'0 0.0
2014-Apr-21 03:18N 59°20' E 010°31'0 0.0
2014-Apr-20 18:26N 59°20' E 010°31'0 0.0
2014-Apr-20 13:24N 59°20' E 010°31'0 0.0
2014-Apr-20 12:32N 59°20' E 010°31'0 0.0
2014-Apr-20 07:27N 59°20' E 010°31'0 0.0
2014-Apr-20 04:20N 59°20' E 010°31'0 0.0
2014-Apr-20 02:33N 59°20' E 010°31'0 0.0
2014-Apr-20 01:33N 59°20' E 010°31'0 0.0
2014-Apr-19 23:26N 59°20' E 010°31'0 0.0
2014-Apr-19 20:21N 59°20' E 010°31'0 0.0
2014-Apr-19 18:25N 59°20' E 010°31'0 0.0
2014-Apr-19 16:19N 59°20' E 010°31'0 0.0
2014-Apr-19 15:08N 59°20' E 010°31'0 0.0
2014-Apr-19 12:19N 59°20' E 010°31'0 0.0
2014-Apr-19 08:15N 59°20' E 010°31'0 0.0
2014-Apr-19 03:23N 59°20' E 010°31'0 0.0
2014-Apr-19 02:30N 59°20' E 010°31'0 0.0
2014-Apr-19 01:14N 59°20' E 010°31'0 0.0
2014-Apr-18 21:33N 59°20' E 010°31'0 0.0
2014-Apr-18 16:07N 59°20' E 010°31'0 0.0
2014-Apr-18 14:06N 59°20' E 010°31'0 0.0
2014-Apr-18 11:30N 59°20' E 010°31'0 0.0
2014-Apr-18 06:30N 59°20' E 010°31'0 0.0
2014-Apr-18 02:32N 59°20' E 010°31'0 0.0
2014-Apr-17 22:17N 59°20' E 010°31'0 0.0
2014-Apr-17 20:18N 59°20' E 010°31'0 0.0
2014-Apr-17 19:25N 59°20' E 010°31'0 0.0
2014-Apr-17 18:06N 59°20' E 010°31'0 0.0
2014-Apr-17 10:17N 59°20' E 010°31'0 0.0
2014-Apr-17 06:07N 59°20' E 010°31'0 0.0
2014-Apr-17 04:08N 59°20' E 010°31'0 0.0
2014-Apr-17 03:30N 59°20' E 010°31'0 0.0
2014-Apr-16 23:30N 59°20' E 010°31'2 1.3
2014-Apr-16 22:11N 59°19' E 010°33'6 9.1
2014-Apr-16 21:30N 59°13' E 010°38'1 1.3
2014-Apr-16 20:32N 59°12' E 010°37'8 7.7
2014-Apr-16 19:27N 59°20' E 010°31'0 0.0
2014-Apr-16 18:06N 59°20' E 010°31'0 0.0
2014-Apr-16 14:31N 59°20' E 010°31'0 0.0
2014-Apr-16 12:25N 59°20' E 010°31'0 0.0
2014-Apr-16 11:27N 59°20' E 010°31'0 0.0
2014-Apr-16 10:25N 59°20' E 010°31'8 8.4
2014-Apr-16 09:24N 59°12' E 010°37'8 8.4
2014-Apr-16 08:28N 59°19' E 010°32'1 0.9
2014-Apr-16 07:25N 59°20' E 010°31'0 0.0
2014-Apr-16 06:29N 59°20' E 010°31'0 0.0
2014-Apr-16 05:28N 59°20' E 010°31'0 0.0
2014-Apr-16 04:27N 59°20' E 010°31'0 0.0
2014-Apr-16 02:31N 59°20' E 010°31'0 0.0
2014-Apr-16 00:22N 59°20' E 010°31'1 1.7
2014-Apr-15 23:28N 59°21' E 010°33'1 1.3
2014-Apr-15 22:20N 59°20' E 010°31'0 0.0
2014-Apr-15 20:29N 59°20' E 010°31'0 0.0
2014-Apr-15 19:18N 59°20' E 010°31'0 0.0
2014-Apr-15 17:25N 59°20' E 010°31'1 0.1
2014-Apr-15 05:33N 59°20' E 010°30'1 0.3
2014-Apr-15 03:31N 59°20' E 010°31'0 0.0
2014-Apr-14 17:31N 59°20' E 010°31'0 0.0
2014-Apr-14 15:31N 59°20' E 010°31'0 0.0
2014-Apr-14 13:31N 59°20' E 010°31'0 0.0
2014-Apr-13 20:10N 59°20' E 010°31'0 0.0
2014-Apr-13 19:20N 59°20' E 010°31'0 0.0
2014-Apr-13 17:32N 59°20' E 010°31'0 0.0
2014-Apr-13 16:05N 59°20' E 010°31'0 0.0
2014-Apr-13 14:31N 59°20' E 010°31'0 0.0
2014-Apr-13 13:12N 59°20' E 010°31'  

Dump ship's entire track history

sailing weather and tide predictions

Tb_john — LJUO — position and weather